Time;durP1;ratioP1;P1;durP2;ratioP2;P2;SDS_P1;SDS_P2;PMS_P1;PMS_P2;Temp;Humidity;BMP_temperature;BMP_pressure;BME280_temperature;BME280_humidity;BME280_pressure;Samples;Min_cycle;Max_cycle;Signal;HPM_P1;HPM_P2
2023/10/04 00:00:21;;;;;;;12.30;7.35;;;;;;;13.87;55.14;95702.63;5087817;28;20024;-76
2023/10/04 00:02:53;;;;;;;14.48;7.90;;;;;;;13.87;55.21;95703.41;5088798;28;20058;-77
2023/10/04 00:05:24;;;;;;;16.15;8.32;;;;;;;13.84;55.19;95704.31;5087738;28;20055;-77
2023/10/04 00:07:52;;;;;;;13.68;8.02;;;;;;;13.86;55.06;95699.09;5087253;28;20055;-77
2023/10/04 00:10:19;;;;;;;11.48;7.78;;;;;;;13.80;55.08;95696.09;5106046;28;20077;-77
2023/10/04 00:12:45;;;;;;;14.50;8.02;;;;;;;13.71;55.32;95693.22;5086941;28;20024;-77
2023/10/04 00:15:14;;;;;;;13.45;8.23;;;;;;;13.69;55.50;95692.88;5087129;28;20455;-77
2023/10/04 00:17:42;;;;;;;14.23;8.00;;;;;;;13.66;55.51;95688.25;5105630;28;20114;-77
2023/10/04 00:20:10;;;;;;;18.15;8.30;;;;;;;13.64;55.29;95685.13;5087025;28;20470;-80
2023/10/04 00:22:39;;;;;;;14.32;7.80;;;;;;;13.67;55.40;95694.53;5087617;28;20490;-77
2023/10/04 00:25:05;;;;;;;14.35;8.25;;;;;;;13.60;55.34;95684.47;5087147;28;20051;-76
2023/10/04 00:27:30;;;;;;;15.30;8.35;;;;;;;13.62;55.27;95690.31;5087654;28;20059;-79
2023/10/04 00:29:56;;;;;;;12.80;7.90;;;;;;;13.55;55.35;95685.00;5108012;28;20081;-78
2023/10/04 00:32:22;;;;;;;16.42;8.40;;;;;;;13.60;55.14;95695.53;5091144;28;20035;-77
2023/10/04 00:34:47;;;;;;;12.50;8.57;;;;;;;13.49;55.59;95692.28;5074066;28;20103;-78
2023/10/04 00:37:15;;;;;;;14.68;8.35;;;;;;;13.47;55.77;95683.66;5109040;28;20076;-79
2023/10/04 00:39:41;;;;;;;15.95;8.60;;;;;;;13.48;55.72;95685.22;5090700;28;20452;-78
2023/10/04 00:42:06;;;;;;;13.35;8.35;;;;;;;13.48;55.77;95682.47;5108753;28;20019;-78
2023/10/04 00:44:35;;;;;;;15.75;8.38;;;;;;;13.40;55.88;95675.56;5109352;28;20084;-79
2023/10/04 00:47:01;;;;;;;12.35;8.43;;;;;;;13.34;56.04;95680.84;5108889;28;20027;-79
2023/10/04 00:49:27;;;;;;;12.10;8.20;;;;;;;13.36;56.02;95683.97;5074118;28;20035;-77
2023/10/04 00:51:52;;;;;;;13.00;8.27;;;;;;;13.36;55.90;95678.44;5108760;28;20469;-78
2023/10/04 00:54:18;;;;;;;14.82;8.27;;;;;;;13.33;56.13;95673.78;5090349;28;20498;-79
2023/10/04 00:56:43;;;;;;;15.30;8.18;;;;;;;13.39;55.96;95687.84;5090423;28;20042;-77
2023/10/04 00:59:09;;;;;;;13.23;8.15;;;;;;;13.30;56.27;95674.66;5108258;28;20462;-79
2023/10/04 01:01:35;;;;;;;12.52;7.97;;;;;;;13.32;56.31;95686.03;5108984;28;20023;-79
2023/10/04 01:04:00;;;;;;;13.77;7.90;;;;;;;13.32;56.20;95685.28;5108306;28;20020;-79
2023/10/04 01:06:26;;;;;;;14.45;7.97;;;;;;;13.27;56.24;95683.81;5109186;28;20035;-79
2023/10/04 01:08:52;;;;;;;14.43;8.15;;;;;;;13.23;56.27;95694.19;5089865;28;20113;-79
2023/10/04 01:11:18;;;;;;;13.38;7.72;;;;;;;13.23;56.54;95689.44;5073402;28;20054;-79
2023/10/04 01:13:43;;;;;;;13.15;8.65;;;;;;;13.19;56.25;95687.94;5108450;28;20047;-79
2023/10/04 01:16:09;;;;;;;12.93;7.80;;;;;;;13.21;56.37;95693.84;5108358;28;20023;-78
2023/10/04 01:18:36;;;;;;;13.82;7.78;;;;;;;13.17;56.77;95695.88;5090624;28;20537;-78
2023/10/04 01:21:01;;;;;;;15.85;7.75;;;;;;;13.11;56.81;95686.59;5089860;28;20026;-79
2023/10/04 01:23:28;;;;;;;12.05;7.93;;;;;;;13.10;56.76;95693.31;5090734;28;20397;-78
2023/10/04 01:25:54;;;;;;;13.43;7.65;;;;;;;13.10;56.68;95683.06;5089587;28;20036;-78
2023/10/04 01:28:28;;;;;;;17.30;8.05;;;;;;;13.05;56.70;95691.88;5090565;28;20026;-78
2023/10/04 01:30:55;;;;;;;12.00;7.82;;;;;;;13.06;56.82;95698.94;5108054;28;20049;-78
2023/10/04 01:33:21;;;;;;;13.73;8.30;;;;;;;12.98;56.74;95694.81;5107974;28;20537;-78
2023/10/04 01:35:49;;;;;;;13.93;7.40;;;;;;;13.00;56.47;95695.91;5089773;28;20024;-78
2023/10/04 01:38:15;;;;;;;11.93;8.13;;;;;;;12.97;56.57;95694.03;5089491;28;20111;-78
2023/10/04 01:40:47;;;;;;;11.90;7.47;;;;;;;12.93;56.45;95687.84;5089408;28;20028;-78
2023/10/04 01:43:16;;;;;;;14.65;8.27;;;;;;;12.89;56.62;95689.13;5090484;28;20024;-78
2023/10/04 01:45:52;;;;;;;14.25;8.52;;;;;;;12.90;56.69;95690.69;5090075;28;20039;-78
2023/10/04 01:48:19;;;;;;;16.67;8.35;;;;;;;12.85;56.79;95700.28;5072818;28;20497;-78
2023/10/04 01:50:46;;;;;;;13.20;7.55;;;;;;;12.83;56.67;95696.38;5107958;28;20045;-79
2023/10/04 01:53:12;;;;;;;13.07;7.93;;;;;;;12.80;56.79;95689.75;5077172;28;20042;-79
2023/10/04 01:55:37;;;;;;;14.55;7.85;;;;;;;12.72;56.92;95691.91;5090601;28;20032;-78
2023/10/04 01:58:04;;;;;;;17.08;8.30;;;;;;;12.73;57.06;95690.72;5090235;28;20481;-78
2023/10/04 02:00:29;;;;;;;12.50;7.70;;;;;;;12.75;57.35;95687.53;5089471;28;20073;-78
2023/10/04 02:02:54;;;;;;;12.77;7.80;;;;;;;12.72;57.13;95683.63;5072882;28;20019;-78
2023/10/04 02:05:28;;;;;;;14.52;8.65;;;;;;;12.69;57.28;95692.00;5089504;28;20023;-78
2023/10/04 02:07:54;;;;;;;;;;;;;;;12.69;57.29;95692.78;5107660;28;20027;-78
2023/10/04 02:10:19;;;;;;;13.85;7.97;;;;;;;12.61;57.41;95685.09;5089449;28;19961;-77
2023/10/04 02:12:45;;;;;;;15.23;8.18;;;;;;;12.58;57.62;95683.22;5107307;28;20027;-78
2023/10/04 02:15:17;;;;;;;16.27;8.32;;;;;;;12.59;57.70;95693.03;5072150;28;20071;-78
2023/10/04 02:17:47;;;;;;;11.32;7.68;;;;;;;12.56;57.88;95691.13;5088563;28;20478;-78
2023/10/04 02:20:20;;;;;;;16.63;9.35;;;;;;;12.53;57.94;95692.78;5089617;28;20032;-78
2023/10/04 02:22:47;;;;;;;11.32;8.07;;;;;;;12.53;57.60;95692.78;5107374;28;20047;-77
2023/10/04 02:25:13;;;;;;;16.10;7.97;;;;;;;12.53;58.09;95689.25;5106807;28;20395;-77
2023/10/04 02:27:40;;;;;;;13.73;8.27;;;;;;;12.47;58.05;95695.28;5089320;28;20020;-77
2023/10/04 02:30:14;;;;;;;13.32;7.90;;;;;;;12.49;57.95;95692.84;5088375;28;20028;-78
2023/10/04 02:32:43;;;;;;;18.35;8.52;;;;;;;12.49;58.02;95690.09;5090125;28;20088;-79
2023/10/04 02:35:28;;;;;;;14.60;8.88;;;;;;;12.48;58.05;95693.31;5106383;28;20454;-79
2023/10/04 02:38:09;;;;;;;13.35;8.38;;;;;;;12.48;58.14;95682.28;5106674;28;20027;-77
2023/10/04 02:40:37;;;;;;;15.77;9.88;;;;;;;12.46;58.03;95704.00;5107118;28;20024;-79
2023/10/04 02:43:04;;;;;;;15.20;9.38;;;;;;;12.45;57.91;95697.72;5088214;28;20027;-77
2023/10/04 02:45:29;;;;;;;15.63;8.25;;;;;;;12.44;58.07;95689.84;5088593;28;20465;-78
2023/10/04 02:47:55;;;;;;;14.88;8.82;;;;;;;12.35;58.22;95695.97;5087672;28;20015;-79
2023/10/04 02:50:23;;;;;;;14.82;8.23;;;;;;;12.31;58.34;95687.00;5088645;28;20030;-78
2023/10/04 02:52:50;;;;;;;13.80;8.63;;;;;;;12.36;58.30;95689.25;5087578;28;20115;-77
2023/10/04 02:55:17;;;;;;;14.98;8.00;;;;;;;12.32;58.18;95690.53;5088162;28;20034;-78
2023/10/04 02:57:46;;;;;;;17.50;9.00;;;;;;;12.34;58.13;95694.44;5071546;28;20382;-76
2023/10/04 03:00:17;;;;;;;12.60;7.85;;;;;;;12.32;58.32;95685.78;5070608;28;20108;-78
2023/10/04 03:02:52;;;;;;;17.08;9.27;;;;;;;12.34;58.26;95688.91;5106774;28;20103;-77
2023/10/04 03:05:21;;;;;;;16.90;8.70;;;;;;;12.31;58.37;95691.75;5087409;28;20505;-77
2023/10/04 03:07:48;;;;;;;15.88;8.80;;;;;;;12.31;58.41;95687.00;5106617;28;20434;-77
2023/10/04 03:10:23;;;;;;;16.20;9.23;;;;;;;12.33;58.34;95687.38;5087710;28;20055;-78
2023/10/04 03:12:52;;;;;;;14.73;8.13;;;;;;;12.26;58.49;95689.50;5072150;28;20069;-78
2023/10/04 03:15:21;;;;;;;15.40;8.10;;;;;;;12.24;58.57;95689.94;5070886;28;20071;-77
2023/10/04 03:17:46;;;;;;;16.15;9.30;;;;;;;12.23;58.59;95682.88;5105848;28;20031;-78
2023/10/04 03:20:20;;;;;;;17.38;9.65;;;;;;;12.23;58.42;95691.16;5106287;28;20115;-77
2023/10/04 03:22:45;;;;;;;;;;;;;;;12.24;58.48;95695.44;5106350;28;20444;-77
2023/10/04 03:25:11;;;;;;;13.27;7.53;;;;;;;12.15;58.40;95701.53;5106387;28;19942;-78
2023/10/04 03:27:37;;;;;;;17.88;10.40;;;;;;;12.11;58.48;95700.84;5106314;28;20098;-78
2023/10/04 03:30:07;;;;;;;15.65;8.50;;;;;;;12.08;58.50;95690.69;5106115;28;20023;-78
2023/10/04 03:32:34;;;;;;;13.20;8.50;;;;;;;12.09;58.49;95694.97;5088808;28;20050;-78
2023/10/04 03:35:02;;;;;;;15.80;8.18;;;;;;;12.09;58.52;95691.44;5105601;28;20084;-79
2023/10/04 03:37:31;;;;;;;15.32;8.85;;;;;;;12.13;58.44;95697.66;5105761;28;20109;-77
2023/10/04 03:39:57;;;;;;;15.88;8.88;;;;;;;12.03;58.57;95685.66;5087004;28;20378;-78
2023/10/04 03:42:23;;;;;;;20.27;9.15;;;;;;;12.06;58.57;95689.56;5105740;28;20024;-78
2023/10/04 03:44:48;;;;;;;18.63;9.07;;;;;;;12.07;58.53;95697.41;5105760;28;20028;-77
2023/10/04 03:47:15;;;;;;;13.80;8.65;;;;;;;12.01;58.60;95701.09;5105426;28;20038;-77
2023/10/04 03:49:40;;;;;;;17.42;8.23;;;;;;;12.02;58.40;95708.16;5087734;28;20058;-81
2023/10/04 03:52:06;;;;;;;16.48;8.70;;;;;;;11.99;58.56;95706.28;5105320;28;20051;-77
2023/10/04 03:54:31;;;;;;;18.10;9.93;;;;;;;12.00;58.49;95702.31;5105783;28;20398;-77
2023/10/04 03:56:56;;;;;;;18.17;9.25;;;;;;;11.97;58.51;95701.16;5105435;28;20026;-79
2023/10/04 03:59:22;;;;;;;18.65;9.70;;;;;;;11.96;58.96;95700.38;5105901;28;20088;-79
2023/10/04 04:01:47;;;;;;;16.50;9.18;;;;;;;11.97;58.79;95701.16;5086845;28;20111;-79
2023/10/04 04:04:17;;;;;;;17.48;8.35;;;;;;;11.96;58.70;95696.84;5089026;28;20127;-80
2023/10/04 04:06:43;;;;;;;17.38;9.30;;;;;;;11.88;58.83;95692.72;5092099;28;20031;-80
2023/10/04 04:09:09;;;;;;;14.52;8.45;;;;;;;11.87;58.85;95689.19;5109704;28;20024;-79
2023/10/04 04:11:38;;;;;;;19.27;9.93;;;;;;;11.90;59.00;95696.59;5091416;28;20023;-79
2023/10/04 04:14:07;;;;;;;15.93;8.95;;;;;;;11.85;58.88;95699.06;5090325;28;20047;-80
2023/10/04 04:16:33;;;;;;;16.13;9.95;;;;;;;11.84;58.79;95686.50;5074957;28;20019;-79
2023/10/04 04:18:59;;;;;;;13.70;9.43;;;;;;;11.85;58.69;95690.81;5091098;28;20012;-79
2023/10/04 04:21:25;;;;;;;19.23;9.98;;;;;;;11.84;58.78;95692.78;5091429;28;20028;-79
2023/10/04 04:23:51;;;;;;;13.65;8.38;;;;;;;11.82;58.91;95697.97;5109592;28;20030;-79
2023/10/04 04:26:17;;;;;;;20.83;9.70;;;;;;;11.81;58.71;95690.06;5090746;28;20032;-79
2023/10/04 04:28:43;;;;;;;16.52;9.90;;;;;;;11.82;58.85;95692.44;5109769;28;20450;-79
2023/10/04 04:31:20;;;;;;;16.38;9.27;;;;;;;11.74;59.02;95691.00;5109145;28;20030;-78
2023/10/04 04:33:45;;;;;;;23.33;10.63;;;;;;;11.78;58.95;95694.47;5091437;28;20474;-78
2023/10/04 04:36:34;;;;;;;19.20;9.38;;;;;;;11.77;59.04;95692.91;5090394;28;20371;-80
2023/10/04 04:38:56;;;;;;;24.25;9.85;;;;;;;11.76;59.11;95702.38;5108432;28;20067;-78
2023/10/04 04:41:25;;;;;;;20.00;10.10;;;;;;;11.71;59.26;95694.63;5090179;28;20054;-78
2023/10/04 04:43:51;;;;;;;20.95;9.98;;;;;;;11.69;59.33;95686.00;5089828;28;20019;-78
2023/10/04 04:46:18;;;;;;;16.42;9.70;;;;;;;11.75;59.07;95689.78;5090340;28;20490;-77
2023/10/04 04:48:45;;;;;;;18.92;9.68;;;;;;;11.77;59.02;95692.91;5090484;28;20019;-78
2023/10/04 04:51:11;;;;;;;18.90;9.98;;;;;;;11.76;59.03;95699.63;5109237;28;20020;-78
2023/10/04 04:53:40;;;;;;;14.85;9.90;;;;;;;11.76;59.05;95698.88;5089886;28;20419;-79
2023/10/04 04:56:13;;;;;;;18.08;9.50;;;;;;;11.73;59.21;95700.47;5073894;28;20032;-80
2023/10/04 04:58:49;;;;;;;18.40;10.25;;;;;;;11.74;59.37;95702.03;5091359;28;20099;-78
2023/10/04 05:01:17;;;;;;;16.80;10.88;;;;;;;11.73;59.98;95697.72;5091063;28;20042;-79
2023/10/04 05:03:46;;;;;;;17.70;9.82;;;;;;;11.75;59.47;95711.84;5090633;28;20080;-79
2023/10/04 05:06:30;;;;;;;18.83;10.40;;;;;;;11.78;59.42;95710.22;5090500;28;20019;-81
2023/10/04 05:08:56;;;;;;;21.17;12.13;;;;;;;11.80;59.49;95716.84;5097736;28;20012;-78
2023/10/04 05:11:24;;;;;;;20.65;11.88;;;;;;;11.80;59.78;95714.09;5095837;28;20030;-78
2023/10/04 05:13:51;;;;;;;17.50;11.45;;;;;;;11.84;59.59;95711.28;5090886;28;20047;-80
2023/10/04 05:16:16;;;;;;;28.02;12.13;;;;;;;11.91;59.55;95717.41;5090740;28;20027;-79
2023/10/04 05:18:43;;;;;;;25.83;11.32;;;;;;;11.91;59.42;95706.41;5073009;28;20057;-79
2023/10/04 05:21:10;;;;;;;21.38;13.32;;;;;;;11.95;59.64;95720.13;5109335;28;20031;-81
2023/10/04 05:23:36;;;;;;;20.27;11.15;;;;;;;11.99;59.57;95712.56;5073004;28;20558;-78
2023/10/04 05:26:01;;;;;;;23.60;11.05;;;;;;;11.95;59.50;95706.34;5090798;28;20400;-78
2023/10/04 05:28:29;;;;;;;22.10;11.65;;;;;;;12.05;59.45;95713.59;5109143;28;20023;-79
2023/10/04 05:30:55;;;;;;;18.73;11.02;;;;;;;12.04;59.43;95717.53;5108741;28;20019;-79
2023/10/04 05:33:22;;;;;;;23.35;11.90;;;;;;;12.08;59.45;95715.47;5108837;28;20081;-81
2023/10/04 05:35:52;;;;;;;20.83;11.27;;;;;;;12.13;59.50;95725.22;5072295;28;20486;-80
2023/10/04 05:38:18;;;;;;;19.67;11.30;;;;;;;12.20;59.31;95723.09;5073750;28;20118;-80
2023/10/04 05:40:44;;;;;;;25.80;12.18;;;;;;;12.22;59.32;95722.69;5089041;28;20108;-80
2023/10/04 05:43:13;;;;;;;20.05;11.77;;;;;;;12.29;59.05;95735.50;5090263;28;20455;-80
2023/10/04 05:45:42;;;;;;;21.13;12.85;;;;;;;12.32;58.98;95737.41;5069416;28;20057;-80
2023/10/04 05:48:10;;;;;;;27.00;15.07;;;;;;;12.37;58.98;95734.13;5090359;28;20114;-80
2023/10/04 05:50:36;;;;;;;20.42;15.30;;;;;;;12.45;58.72;95741.06;5072589;28;20062;-80
2023/10/04 05:53:05;;;;;;;28.58;15.27;;;;;;;12.46;58.64;95748.88;5072202;28;20051;-80
2023/10/04 05:55:32;;;;;;;25.92;16.13;;;;;;;12.47;58.42;95731.13;5090259;28;20030;-79
2023/10/04 05:57:58;;;;;;;24.35;16.25;;;;;;;12.54;58.30;95749.50;5088638;28;20066;-79
2023/10/04 06:00:25;;;;;;;30.27;16.67;;;;;;;12.59;58.25;95753.72;5089995;28;20065;-81
2023/10/04 06:02:52;;;;;;;33.00;17.48;;;;;;;12.64;57.95;95753.22;5088929;28;20409;-80
2023/10/04 06:05:24;;;;;;;27.35;18.58;;;;;;;12.68;57.76;95743.66;5089698;28;20055;-80
2023/10/04 06:07:56;;;;;;;32.85;20.52;;;;;;;12.75;57.62;95742.69;5089187;28;20032;-80
2023/10/04 06:10:24;;;;;;;30.48;19.02;;;;;;;12.85;57.37;95738.91;5071763;28;20028;-80
2023/10/04 06:12:51;;;;;;;26.15;19.10;;;;;;;12.86;57.17;95742.44;5089439;28;20051;-79
2023/10/04 06:15:18;;;;;;;26.15;17.27;;;;;;;13.02;56.90;95757.00;5088404;28;20562;-78
2023/10/04 06:17:45;;;;;;;26.48;17.02;;;;;;;13.09;56.83;95756.03;5089147;28;20024;-79
2023/10/04 06:23:00;;;;;;;23.83;13.68;;;;;;;13.22;56.52;95756.13;5090049;28;20102;-83
2023/10/04 06:25:27;;;;;;;30.67;14.00;;;;;;;13.25;56.40;95758.03;5088891;28;20028;-80
2023/10/04 06:27:54;;;;;;;29.50;13.45;;;;;;;13.32;56.39;95755.09;5070969;28;20524;-81
2023/10/04 06:30:22;;;;;;;27.13;13.20;;;;;;;13.43;56.33;95755.56;5072206;28;20027;-79
2023/10/04 06:32:52;;;;;;;22.15;13.48;;;;;;;13.43;56.18;95752.81;5088161;28;20324;-81
2023/10/04 06:35:22;;;;;;;24.42;12.50;;;;;;;13.56;55.97;95761.13;5072430;28;20024;-79
2023/10/04 06:37:51;;;;;;;25.05;12.23;;;;;;;13.63;55.85;95751.88;5088927;28;20389;-80
2023/10/04 06:40:19;;;;;;;21.50;12.70;;;;;;;13.66;55.77;95751.78;5088463;28;20030;-79
2023/10/04 06:42:45;;;;;;;21.13;12.13;;;;;;;13.79;55.50;95760.13;5088712;28;20031;-79
2023/10/04 06:45:13;;;;;;;28.75;13.07;;;;;;;13.86;55.19;95759.91;5070718;28;20110;-77
2023/10/04 06:47:41;;;;;;;20.02;11.93;;;;;;;13.92;54.96;95769.19;5107316;28;20027;-79
2023/10/04 06:50:07;;;;;;;22.02;11.73;;;;;;;14.01;54.66;95774.88;5106158;28;20028;-77
2023/10/04 06:52:34;;;;;;;21.20;12.07;;;;;;;14.08;54.65;95777.44;5088695;28;20509;-76
2023/10/04 06:55:07;;;;;;;21.42;12.00;;;;;;;14.15;54.48;95775.66;5106527;28;20028;-78
2023/10/04 06:57:33;;;;;;;19.50;11.05;;;;;;;14.27;54.25;95774.91;5106857;28;20028;-78
2023/10/04 06:59:59;;;;;;;19.60;11.80;;;;;;;14.34;54.05;95775.50;5106771;28;20055;-79
2023/10/04 07:02:24;;;;;;;18.25;10.93;;;;;;;14.45;53.73;95777.13;5088068;28;20358;-78
2023/10/04 07:04:50;;;;;;;21.25;12.65;;;;;;;14.51;53.37;95772.66;5088357;28;20383;-77
2023/10/04 07:07:15;;;;;;;24.17;11.70;;;;;;;14.56;53.32;95772.84;5087908;28;20027;-76
2023/10/04 07:09:41;;;;;;;20.00;11.38;;;;;;;14.70;53.14;95773.66;5106498;28;20544;-76
2023/10/04 07:12:07;;;;;;;20.17;11.23;;;;;;;14.73;52.81;95756.13;5105850;28;20383;-75
2023/10/04 07:14:33;;;;;;;20.02;10.80;;;;;;;14.88;52.61;95762.78;5088240;28;20103;-77
2023/10/04 07:16:59;;;;;;;16.15;10.05;;;;;;;15.00;52.25;95763.97;5106221;28;20023;-76
2023/10/04 07:19:28;;;;;;;19.40;11.27;;;;;;;15.14;52.27;95771.81;5105901;28;20039;-78
2023/10/04 07:21:55;;;;;;;22.90;10.80;;;;;;;15.26;51.59;95764.69;5088214;28;20016;-78
2023/10/04 07:24:20;;;;;;;19.08;9.73;;;;;;;15.34;51.16;95755.69;5070551;28;20047;-79
2023/10/04 07:26:46;;;;;;;14.85;9.88;;;;;;;15.49;50.92;95761.53;5106247;28;20023;-76
2023/10/04 07:29:11;;;;;;;18.63;9.80;;;;;;;15.56;50.94;95752.94;5105479;28;20027;-77
2023/10/04 07:31:36;;;;;;;16.17;10.27;;;;;;;15.74;50.11;95744.03;5088086;28;20028;-77
2023/10/04 07:34:02;;;;;;;13.88;9.63;;;;;;;15.86;49.73;95742.41;5106134;28;20513;-78
2023/10/04 07:36:28;;;;;;;20.25;10.38;;;;;;;16.04;49.17;95745.28;5087992;28;20042;-78
2023/10/04 07:38:53;;;;;;;22.90;11.10;;;;;;;16.17;48.84;95742.44;5087634;28;20022;-78
2023/10/04 07:41:19;;;;;;;21.83;10.70;;;;;;;16.32;48.41;95745.44;5105303;28;20102;-78
2023/10/04 07:43:44;;;;;;;16.85;10.23;;;;;;;16.45;47.90;95746.88;5106193;28;20024;-77
2023/10/04 07:46:09;;;;;;;20.92;10.45;;;;;;;16.59;47.34;95739.25;5070122;28;20034;-78
2023/10/04 07:48:35;;;;;;;16.35;10.32;;;;;;;16.77;46.48;95742.13;5106072;28;20028;-78
2023/10/04 07:51:01;;;;;;;15.45;9.40;;;;;;;16.91;46.44;95744.31;5087161;28;20020;-79
2023/10/04 07:53:27;;;;;;;20.05;9.70;;;;;;;17.09;46.64;95742.78;5106322;28;20016;-79
2023/10/04 07:55:52;;;;;;;18.45;10.75;;;;;;;17.28;45.77;95741.63;5070738;28;20426;-79
2023/10/04 07:58:17;;;;;;;15.85;8.40;;;;;;;17.48;45.53;95736.34;5105481;28;20028;-80
2023/10/04 08:00:43;;;;;;;15.63;8.38;;;;;;;17.70;45.27;95739.00;5070841;28;20096;-78
2023/10/04 08:03:09;;;;;;;15.23;8.93;;;;;;;17.92;44.47;95733.28;5104943;28;20038;-78
2023/10/04 08:05:35;;;;;;;17.75;8.65;;;;;;;18.15;43.37;95736.63;5105779;28;20027;-77
2023/10/04 08:08:02;;;;;;;16.67;8.65;;;;;;;18.38;42.80;95735.19;5086751;28;20459;-78
2023/10/04 08:10:29;;;;;;;13.07;7.43;;;;;;;18.61;42.93;95730.94;5105937;28;20031;-77
2023/10/04 08:12:59;;;;;;;16.05;7.63;;;;;;;18.90;41.58;95731.13;5087338;28;20024;-78
2023/10/04 08:15:25;;;;;;;16.52;8.43;;;;;;;19.25;41.28;95731.38;5087336;28;20525;-78
2023/10/04 08:17:52;;;;;;;13.32;7.80;;;;;;;19.58;40.39;95725.72;5087558;28;20424;-79
2023/10/04 08:20:19;;;;;;;12.32;7.38;;;;;;;20.02;38.87;95725.03;5086490;28;20024;-78
2023/10/04 08:22:45;;;;;;;15.50;8.38;;;;;;;20.31;38.58;95726.31;5070395;28;20088;-79
2023/10/04 08:25:16;;;;;;;13.18;7.93;;;;;;;20.64;38.78;95717.69;5086534;28;20394;-79
2023/10/04 08:27:42;;;;;;;15.82;8.52;;;;;;;21.01;38.17;95714.44;5090329;28;20498;-79
2023/10/04 08:30:12;;;;;;;14.93;8.60;;;;;;;21.42;36.76;95707.63;5087930;28;20110;-78
2023/10/04 08:32:46;;;;;;;15.98;7.38;;;;;;;21.83;36.63;95712.41;5087932;28;20059;-79
2023/10/04 08:35:24;;;;;;;14.88;7.97;;;;;;;22.23;36.39;95711.56;5071129;28;20058;-78
2023/10/04 08:38:00;;;;;;;15.05;7.75;;;;;;;22.71;35.82;95714.53;5088932;28;20422;-79
2023/10/04 08:40:27;;;;;;;16.58;8.48;;;;;;;23.13;34.78;95715.06;5105434;28;20055;-79
2023/10/04 08:42:53;;;;;;;13.02;7.65;;;;;;;23.52;33.36;95716.00;5070532;28;20024;-79
2023/10/04 08:45:19;;;;;;;13.73;7.32;;;;;;;23.90;33.11;95711.03;5087328;28;20070;-79
2023/10/04 08:47:52;;;;;;;12.32;6.93;;;;;;;24.29;32.33;95718.78;5070917;28;20035;-79
2023/10/04 08:50:39;;;;;;;15.55;7.60;;;;;;;24.67;31.68;95710.91;5086565;28;20020;-79
2023/10/04 08:53:14;;;;;;;15.88;7.30;;;;;;;25.19;31.08;95699.84;5109699;28;20492;-79
2023/10/04 08:55:41;;;;;;;20.17;8.20;;;;;;;25.73;30.51;95710.66;5091220;28;20558;-79
2023/10/04 08:58:07;;;;;;;17.65;8.38;;;;;;;26.10;29.52;95695.38;5091211;28;20031;-79
2023/10/04 09:00:35;;;;;;;16.20;8.48;;;;;;;26.65;28.88;95708.31;5090833;28;20077;-79
2023/10/04 09:03:04;;;;;;;16.08;8.13;;;;;;;27.07;28.15;95703.34;5073759;28;20032;-78
2023/10/04 09:05:31;;;;;;;16.52;8.23;;;;;;;27.50;27.42;95694.91;5090680;28;20110;-78
2023/10/04 09:07:57;;;;;;;15.77;8.48;;;;;;;28.02;26.64;95704.28;5090239;28;20024;-78
2023/10/04 09:10:23;;;;;;;16.55;8.68;;;;;;;28.30;26.16;95707.47;5090418;28;20020;-78
2023/10/04 09:12:49;;;;;;;15.85;7.90;;;;;;;29.00;25.42;95715.13;5108395;28;20518;-78
2023/10/04 09:15:15;;;;;;;11.43;6.93;;;;;;;29.78;24.70;95696.66;5090245;28;20127;-79
2023/10/04 09:17:46;;;;;;;12.23;7.13;;;;;;;30.56;23.88;95696.97;5090755;28;20034;-78
2023/10/04 09:20:15;;;;;;;15.70;7.60;;;;;;;31.31;22.11;95701.06;5090596;28;20076;-79
2023/10/04 09:22:40;;;;;;;16.95;6.88;;;;;;;32.28;21.31;95706.28;5073918;28;20286;-79
2023/10/04 09:25:06;;;;;;;12.20;7.13;;;;;;;32.86;20.72;95699.03;5108193;28;20057;-79
2023/10/04 09:27:31;;;;;;;13.55;6.78;;;;;;;33.76;19.81;95699.53;5108391;28;20433;-79
2023/10/04 09:29:59;;;;;;;13.15;7.70;;;;;;;34.55;18.60;95703.03;5089756;28;20019;-79
2023/10/04 09:32:43;;;;;;;12.40;7.47;;;;;;;35.31;17.75;95698.84;5108304;28;20048;-79
2023/10/04 09:35:09;;;;;;;14.23;7.53;;;;;;;36.00;17.61;95688.84;5090060;28;20039;-78
2023/10/04 09:37:35;;;;;;;11.13;7.10;;;;;;;36.25;16.82;95680.91;5108112;28;20027;-78
2023/10/04 09:40:08;;;;;;;12.23;7.35;;;;;;;36.79;16.48;95694.47;5090692;28;20031;-78
2023/10/04 09:42:45;;;;;;;17.58;7.50;;;;;;;37.40;15.75;95694.28;5107816;28;20023;-78
2023/10/04 09:45:12;;;;;;;12.82;6.78;;;;;;;37.98;15.55;95693.59;5107834;28;20525;-78
2023/10/04 09:47:38;;;;;;;13.10;6.53;;;;;;;38.52;15.10;95690.34;5089360;28;20020;-79
2023/10/04 09:50:10;;;;;;;9.60;6.47;;;;;;;39.10;14.46;95698.03;5073241;28;20397;-78
2023/10/04 09:52:37;;;;;;;10.50;6.43;;;;;;;39.51;14.39;95681.47;5107972;28;20039;-78
2023/10/04 09:55:05;;;;;;;9.15;6.03;;;;;;;40.11;14.02;95686.22;5089635;28;20024;-78
2023/10/04 09:57:33;;;;;;;11.07;6.93;;;;;;;40.55;13.55;95682.63;5089747;28;20031;-78
2023/10/04 10:00:00;;;;;;;12.48;6.72;;;;;;;40.64;13.28;95681.00;5088983;28;20038;-78
2023/10/04 10:02:28;;;;;;;9.80;6.47;;;;;;;40.94;12.88;95688.72;5089269;28;20047;-79
2023/10/04 10:04:53;;;;;;;10.82;6.40;;;;;;;41.36;13.16;95681.97;5088906;28;20189;-79
2023/10/04 10:07:25;;;;;;;11.32;6.60;;;;;;;41.52;12.50;95669.88;5089606;28;20596;-79
2023/10/04 10:10:16;;;;;;;12.77;6.25;;;;;;;41.87;12.16;95670.59;5089827;28;20416;-79
2023/10/04 10:12:43;;;;;;;13.00;6.20;;;;;;;42.15;12.09;95668.59;5090069;28;20031;-80
2023/10/04 10:15:11;;;;;;;13.00;6.00;;;;;;;42.22;11.91;95666.09;5107369;28;20135;-79
2023/10/04 10:17:37;;;;;;;11.40;6.28;;;;;;;42.55;11.90;95660.72;5088881;28;20504;-79
2023/10/04 10:20:05;;;;;;;12.00;6.22;;;;;;;43.07;11.53;95662.19;5089118;28;20027;-79
2023/10/04 10:22:30;;;;;;;9.60;5.82;;;;;;;43.40;11.42;95652.34;5106959;28;20132;-79
2023/10/04 10:24:55;;;;;;;14.73;6.10;;;;;;;43.78;10.97;95655.72;5089013;28;20454;-79
2023/10/04 10:27:23;;;;;;;10.07;6.32;;;;;;;43.95;10.57;95644.31;5107585;28;20027;-79
2023/10/04 10:29:48;;;;;;;11.13;5.97;;;;;;;44.11;10.70;95632.06;5088124;28;20072;-80
2023/10/04 10:32:22;;;;;;;10.98;6.00;;;;;;;44.41;10.73;95636.44;5089724;28;20099;-80
2023/10/04 10:35:07;;;;;;;10.93;5.93;;;;;;;44.86;10.13;95632.03;5088402;28;20028;-80
2023/10/04 10:37:38;;;;;;;13.35;6.10;;;;;;;44.86;9.75;95629.88;5107085;28;20024;-80
2023/10/04 10:40:09;;;;;;;9.93;5.60;;;;;;;44.58;9.99;95614.03;5088234;28;20027;-80
2023/10/04 10:43:06;;;;;;;10.63;5.47;;;;;;;44.70;9.80;95612.47;5071749;28;20063;-80
2023/10/04 10:45:31;;;;;;;8.75;5.32;;;;;;;44.47;10.20;95615.69;5088884;28;20031;-80
2023/10/04 10:47:58;;;;;;;9.75;5.28;;;;;;;44.60;9.84;95612.00;5088138;28;20142;-80
2023/10/04 10:50:38;;;;;;;9.02;5.30;;;;;;;45.11;9.42;95608.53;5088947;28;20023;-80
2023/10/04 10:53:10;;;;;;;10.52;5.40;;;;;;;45.80;9.26;95607.91;5072128;28;20030;-80
2023/10/04 10:55:36;;;;;;;10.45;5.47;;;;;;;46.37;8.60;95607.34;5088963;28;20114;-78
2023/10/04 10:58:02;;;;;;;10.98;4.90;;;;;;;46.75;8.68;95608.13;5071547;28;20020;-79
2023/10/04 11:00:34;;;;;;;8.65;5.03;;;;;;;47.04;8.58;95609.22;5087870;28;20034;-79
2023/10/04 11:03:00;;;;;;;7.05;4.75;;;;;;;47.65;8.22;95616.50;5106540;28;20019;-80
2023/10/04 11:05:26;;;;;;;7.82;5.15;;;;;;;48.08;7.67;95610.72;5088028;28;20035;-79
2023/10/04 11:07:55;;;;;;;7.38;5.38;;;;;;;48.44;7.41;95604.59;5088174;28;20032;-79
2023/10/04 11:10:26;;;;;;;9.57;5.20;;;;;;;48.52;7.18;95604.84;5071589;28;20112;-80
2023/10/04 11:12:57;;;;;;;8.97;5.33;;;;;;;48.68;7.74;95601.66;5087942;28;20534;-80
2023/10/04 11:15:23;;;;;;;8.45;5.43;;;;;;;48.67;7.44;95597.25;5071930;28;20048;-79
2023/10/04 11:17:50;;;;;;;11.95;5.20;;;;;;;48.86;7.84;95590.56;5087857;28;20112;-80
2023/10/04 11:20:20;;;;;;;7.38;4.50;;;;;;;49.19;6.92;95576.94;5088554;28;20035;-80
2023/10/04 11:22:46;;;;;;;9.00;4.78;;;;;;;49.39;7.07;95582.59;5088284;28;20031;-80
2023/10/04 11:25:15;;;;;;;7.40;4.78;;;;;;;48.75;7.24;95571.31;5088383;28;20032;-80
2023/10/04 11:27:43;;;;;;;9.20;5.15;;;;;;;46.87;8.02;95572.19;5106636;28;20051;-79
2023/10/04 11:30:10;;;;;;;10.77;5.65;;;;;;;45.35;8.89;95562.41;5087999;28;20019;-79